createdAt,value
2018-09-23T00:02:09.740Z,36.06
2018-09-23T00:07:13.026Z,35.68
2018-09-23T00:12:16.293Z,35.49
2018-09-23T00:17:19.585Z,35.76
2018-09-23T00:22:23.128Z,35.63
2018-09-23T00:27:26.466Z,35.91
2018-09-23T00:32:29.821Z,35.99
2018-09-23T00:37:33.119Z,35.99
2018-09-23T00:42:36.407Z,36.16
2018-09-23T00:47:39.679Z,35.81
2018-09-23T00:52:42.955Z,36.04
2018-09-23T00:57:46.226Z,35.70
2018-09-23T01:02:49.742Z,36.08
2018-09-23T01:07:53.496Z,36.07
2018-09-23T01:12:56.777Z,35.96
2018-09-23T01:18:00.063Z,35.95
2018-09-23T01:23:03.355Z,36.30
2018-09-23T01:28:06.630Z,36.27
2018-09-23T01:33:09.909Z,35.78
2018-09-23T01:38:13.270Z,35.98
2018-09-23T01:43:16.554Z,35.98
2018-09-23T01:48:19.882Z,36.02
2018-09-23T01:53:23.167Z,36.40
2018-09-23T01:58:26.438Z,35.80
2018-09-23T02:03:29.741Z,36.22
2018-09-23T02:08:33.023Z,35.92
2018-09-23T02:13:36.319Z,36.01
2018-09-23T02:18:39.599Z,35.98
2018-09-23T02:23:42.975Z,36.13
2018-09-23T02:28:46.257Z,36.23
2018-09-23T02:33:49.538Z,35.87
2018-09-23T02:38:52.811Z,36.30
2018-09-23T02:43:56.118Z,36.24
2018-09-23T02:48:59.407Z,35.63
2018-09-23T02:54:02.690Z,36.11
2018-09-23T02:59:05.980Z,36.32
2018-09-23T03:04:09.262Z,36.22
2018-09-23T03:09:12.550Z,36.11
2018-09-23T03:14:15.843Z,35.87
2018-09-23T03:19:19.114Z,35.79
2018-09-23T03:24:22.394Z,36.34
2018-09-23T03:29:25.678Z,36.03
2018-09-23T03:34:28.963Z,36.28
2018-09-23T03:39:32.243Z,35.84
2018-09-23T03:44:35.527Z,36.10
2018-09-23T03:49:38.856Z,36.23
2018-09-23T03:54:42.146Z,36.03
2018-09-23T03:59:45.434Z,36.25
2018-09-23T04:04:48.714Z,35.87
2018-09-23T04:09:52.002Z,36.56
2018-09-23T04:14:55.290Z,36.00
2018-09-23T04:19:58.569Z,36.24
2018-09-23T04:25:01.845Z,36.07
2018-09-23T04:30:05.503Z,36.55
2018-09-23T04:35:08.798Z,36.18
2018-09-23T04:40:12.319Z,36.17
2018-09-23T04:45:15.609Z,36.40
2018-09-23T04:50:18.882Z,36.17
2018-09-23T04:55:22.218Z,35.92
2018-09-23T05:00:26.626Z,36.30
2018-09-23T05:05:29.937Z,36.42
2018-09-23T05:10:33.226Z,36.19
2018-09-23T05:15:36.556Z,36.18
2018-09-23T05:20:39.847Z,36.57
2018-09-23T05:25:43.131Z,36.33
2018-09-23T05:30:46.470Z,36.12
2018-09-23T05:35:49.775Z,36.06
2018-09-23T05:40:53.057Z,36.34
2018-09-23T05:45:56.343Z,36.12
2018-09-23T05:50:59.630Z,36.35
2018-09-23T05:56:02.909Z,36.43
2018-09-23T06:01:06.202Z,35.98
2018-09-23T06:06:09.714Z,36.12
2018-09-23T06:11:13.068Z,36.58
2018-09-23T06:16:16.315Z,36.38
2018-09-23T06:21:19.722Z,36.16
2018-09-23T06:26:23.015Z,36.17
2018-09-23T06:31:26.299Z,36.32
2018-09-23T06:36:29.586Z,36.69
2018-09-23T06:41:32.867Z,36.23
2018-09-23T06:46:36.148Z,36.40
2018-09-23T06:51:39.438Z,36.34
2018-09-23T06:56:42.727Z,36.38
2018-09-23T07:01:46.027Z,36.33
2018-09-23T07:06:49.339Z,37.38
2018-09-23T07:11:52.806Z,38.14
2018-09-23T07:16:56.272Z,37.71
2018-09-23T07:21:59.731Z,37.49
2018-09-23T07:27:03.031Z,36.74
2018-09-23T07:32:06.350Z,37.28
2018-09-23T07:37:09.685Z,36.84
2018-09-23T07:42:12.951Z,37.12
2018-09-23T07:47:16.227Z,37.02
2018-09-23T07:52:19.619Z,37.52
2018-09-23T07:57:23.155Z,37.58
2018-09-23T08:02:26.457Z,37.52
2018-09-23T08:07:29.774Z,37.55
2018-09-23T08:12:33.196Z,37.53
2018-09-23T08:17:36.458Z,37.48
2018-09-23T08:22:39.742Z,37.38
2018-09-23T08:27:43.876Z,37.77
2018-09-23T08:32:47.195Z,37.50
2018-09-23T08:37:50.703Z,38.08
2018-09-23T08:42:54.045Z,37.99
2018-09-23T08:47:57.595Z,38.12
2018-09-23T08:53:00.876Z,38.19
2018-09-23T08:58:04.182Z,38.34
2018-09-23T09:03:07.503Z,38.30
2018-09-23T09:08:10.787Z,38.68
2018-09-23T09:13:14.091Z,38.75
2018-09-23T09:18:17.482Z,38.63
2018-09-23T09:23:20.702Z,38.81
2018-09-23T09:28:23.984Z,38.59
2018-09-23T09:33:27.282Z,38.80
2018-09-23T09:38:30.906Z,38.99
2018-09-23T09:43:34.165Z,38.97
2018-09-23T09:48:37.450Z,38.98
2018-09-23T09:53:44.040Z,39.09
2018-09-23T09:58:47.308Z,39.34
2018-09-23T10:03:50.637Z,38.76
2018-09-23T10:08:53.901Z,39.00
2018-09-23T10:13:57.183Z,39.14
2018-09-23T10:19:00.455Z,38.59
2018-09-23T10:24:03.736Z,39.15
2018-09-23T10:29:07.036Z,38.81
2018-09-23T10:34:10.420Z,39.05
2018-09-23T10:39:13.728Z,39.38
2018-09-23T10:44:16.998Z,38.82
2018-09-23T10:49:20.271Z,39.22
2018-09-23T10:54:23.547Z,38.54
2018-09-23T10:59:26.874Z,37.95
2018-09-23T11:04:30.145Z,38.05
2018-09-23T11:09:33.505Z,37.75
2018-09-23T11:14:36.781Z,38.19
2018-09-23T11:19:40.058Z,38.21
2018-09-23T11:24:43.390Z,38.15
2018-09-23T11:29:46.643Z,38.58
2018-09-23T11:34:51.027Z,38.41
2018-09-23T11:39:55.041Z,38.64
2018-09-23T11:44:58.334Z,38.78
2018-09-23T11:50:01.888Z,39.06
2018-09-23T11:55:23.614Z,39.17
2018-09-23T12:00:26.902Z,39.61
2018-09-23T12:05:30.190Z,39.11
2018-09-23T12:10:33.475Z,39.17
2018-09-23T12:15:37.123Z,39.81
2018-09-23T12:20:40.396Z,39.43
2018-09-23T12:25:43.794Z,39.23
2018-09-23T12:30:47.005Z,39.58
2018-09-23T12:35:50.287Z,39.67
2018-09-23T12:40:53.579Z,39.88
2018-09-23T12:45:58.346Z,40.20
2018-09-23T12:51:01.635Z,40.91
2018-09-23T12:56:05.654Z,40.65
2018-09-23T13:01:08.931Z,40.89
2018-09-23T13:06:12.206Z,41.21
2018-09-23T13:11:15.596Z,40.56
2018-09-23T13:16:18.871Z,40.31
2018-09-23T13:21:22.155Z,40.60
2018-09-23T13:26:25.476Z,40.86
2018-09-23T13:31:28.769Z,40.70
2018-09-23T13:36:32.063Z,40.60
2018-09-23T13:41:35.463Z,40.85
2018-09-23T13:46:38.832Z,40.85
2018-09-23T13:51:42.064Z,40.80
2018-09-23T13:56:45.342Z,40.90
2018-09-23T14:01:48.697Z,41.23
2018-09-23T14:06:51.982Z,41.03
2018-09-23T14:11:55.360Z,41.06
2018-09-23T14:16:58.694Z,40.71
2018-09-23T14:22:01.977Z,40.85
2018-09-23T14:27:05.263Z,41.17
2018-09-23T14:32:08.596Z,41.17
2018-09-23T14:37:11.876Z,41.12
2018-09-23T14:42:15.228Z,40.78
2018-09-23T14:47:20.016Z,40.91
2018-09-23T14:52:23.326Z,40.35
2018-09-23T14:57:26.619Z,40.83
2018-09-23T15:02:29.907Z,40.41
2018-09-23T15:07:33.208Z,41.22
2018-09-23T15:12:36.491Z,41.13
2018-09-23T15:17:39.783Z,41.47
2018-09-23T15:22:43.094Z,41.24
2018-09-23T15:27:46.386Z,41.70
2018-09-23T15:32:49.716Z,41.94
2018-09-23T15:37:52.999Z,41.99
2018-09-23T15:42:56.270Z,41.54
2018-09-23T15:47:59.545Z,41.86
2018-09-23T15:53:02.832Z,41.59
2018-09-23T15:58:06.306Z,41.78
2018-09-23T16:03:09.601Z,41.92
2018-09-23T16:08:12.886Z,41.56
2018-09-23T16:13:16.223Z,41.58
2018-09-23T16:18:19.581Z,41.46
2018-09-23T16:23:22.874Z,41.40
2018-09-23T16:28:26.211Z,41.19
2018-09-23T16:33:29.500Z,41.19
2018-09-23T16:38:32.814Z,41.36
2018-09-23T16:43:36.387Z,40.79
2018-09-23T16:48:39.685Z,41.12
2018-09-23T16:53:42.967Z,41.18
2018-09-23T16:58:58.548Z,40.68
2018-09-23T17:04:01.833Z,40.86
2018-09-23T17:09:07.730Z,40.97
2018-09-23T17:14:11.010Z,40.17
2018-09-23T17:19:14.868Z,40.04
2018-09-23T17:24:19.540Z,40.50
2018-09-23T17:29:23.996Z,40.15
2018-09-23T17:34:29.007Z,39.81
2018-09-23T17:39:33.963Z,39.77
2018-09-23T17:44:37.761Z,40.04
2018-09-23T17:49:41.712Z,40.47
2018-09-23T17:54:45.506Z,40.68
2018-09-23T17:59:48.843Z,40.55
2018-09-23T18:04:52.139Z,40.19
2018-09-23T18:09:55.502Z,39.72
2018-09-23T18:14:58.785Z,39.37
2018-09-23T18:20:02.111Z,38.70
2018-09-23T18:25:05.519Z,38.79
2018-09-23T18:30:08.843Z,38.56
2018-09-23T18:35:12.291Z,38.71
2018-09-23T18:40:15.582Z,38.90
2018-09-23T18:45:18.883Z,37.97
2018-09-23T18:50:22.188Z,38.21
2018-09-23T18:55:31.008Z,38.72
2018-09-23T19:00:34.316Z,39.15
2018-09-23T19:05:37.808Z,39.63
2018-09-23T19:10:41.441Z,39.75
2018-09-23T19:15:44.942Z,39.43
2018-09-23T19:20:48.275Z,40.00
2018-09-23T19:25:51.630Z,40.08
2018-09-23T19:30:54.924Z,39.94
2018-09-23T19:35:58.230Z,39.66
2018-09-23T19:41:01.532Z,40.06
2018-09-23T19:46:05.296Z,40.22
2018-09-23T19:51:08.595Z,39.92
2018-09-23T19:56:11.884Z,39.77
2018-09-23T20:01:15.178Z,39.73
2018-09-23T20:06:18.478Z,39.98
2018-09-23T20:11:21.779Z,40.50
2018-09-23T20:16:25.077Z,40.72
2018-09-23T20:21:28.387Z,40.35
2018-09-23T20:26:31.892Z,40.53
2018-09-23T20:31:35.326Z,40.97
2018-09-23T20:36:38.654Z,40.69
2018-09-23T20:41:41.959Z,41.17
2018-09-23T20:46:45.254Z,41.13
2018-09-23T20:51:48.567Z,41.13
2018-09-23T20:56:51.964Z,40.94
2018-09-23T21:01:55.315Z,40.96
2018-09-23T21:06:58.553Z,41.23
2018-09-23T21:12:01.830Z,41.53
2018-09-23T21:17:05.139Z,41.50
2018-09-23T21:22:08.471Z,41.13
2018-09-23T21:27:11.750Z,41.46
2018-09-23T21:32:15.119Z,41.59
2018-09-23T21:37:18.386Z,40.88
2018-09-23T21:42:21.674Z,41.55
2018-09-23T21:47:24.962Z,41.30
2018-09-23T21:52:28.235Z,41.20
2018-09-23T21:57:31.510Z,41.42
2018-09-23T22:02:34.787Z,41.50
2018-09-23T22:07:38.090Z,41.45
2018-09-23T22:12:41.375Z,41.62
2018-09-23T22:17:44.687Z,41.40
2018-09-23T22:22:48.216Z,41.54
2018-09-23T22:27:52.166Z,41.75
2018-09-23T22:32:55.559Z,41.51
2018-09-23T22:37:59.055Z,41.10
2018-09-23T22:43:02.439Z,41.66
2018-09-23T22:48:05.763Z,41.64
2018-09-23T22:53:09.063Z,41.40
2018-09-23T22:58:12.396Z,41.80
2018-09-23T23:03:15.671Z,41.38
2018-09-23T23:08:18.951Z,41.73
2018-09-23T23:13:22.239Z,41.42
2018-09-23T23:18:25.526Z,41.40
2018-09-23T23:23:28.805Z,41.52
2018-09-23T23:28:32.111Z,41.46
2018-09-23T23:33:35.386Z,41.97
2018-09-23T23:38:38.682Z,41.92
2018-09-23T23:43:42.061Z,41.92
2018-09-23T23:48:45.342Z,41.89
2018-09-23T23:53:48.619Z,42.01
2018-09-23T23:58:51.926Z,41.57
